Home   Weather   USA   Ashland   Past weeks
Flag for USA

Past Weather in Ashland, Nebraska, USA — Yesterday and Last 2 Weeks

Currently: 80 °F. Sunny. (Weather station: Millard Airport, USA). See more current weather

Past Weather in Ashland — Graph

°F

Ashland Temperature Yesterday

Maximum temperature yesterday: 87 °F (at 12:55 pm)
Minimum temperature yesterday: 72 °F (at 3:15 am)
Average temperature yesterday: 79 °F

High & Low Weather Summary for the Past Weeks

 TemperatureHumidityPressure
High92 °F (Jun 12, 5:55 pm)99% (Jun 23, 6:15 am)30.29 "Hg (Jun 23, 6:15 am)
Low54 °F (Jun 10, 5:55 am)21% (Jun 9, 5:15 pm)29.62 "Hg (Jun 17, 6:55 pm)
Average76 °F63%29.94 "Hg
* Reported Jun 8 9:15 am — Jun 23 9:35 am, Ashland. Weather by CustomWeather, © 2024

Note: Actual official high and low records may vary slightly from our data, if they occured in-between our weather recording intervals... More about our weather records

Ashland Weather History for the Previous 24 Hours

Scroll right to see more
 ConditionsComfort  
Time TempWeatherWind HumidityBarometerVisibility
9:35 am
Sun, Jun 23
78 °FSunny.3 mph64%29.96 "Hg10 mi
9:15 am78 °FSunny.3 mph68%29.96 "Hg10 mi
8:35 am74 °FSunny.No wind75%29.96 "Hg10 mi
7:55 am71 °FSunny.No wind84%29.96 "Hg10 mi
7:35 am69 °FSunny.No wind87%29.96 "Hg10 mi
7:15 am68 °FSunny.No wind91%29.96 "Hg10 mi
6:55 am65 °FSunny.No wind96%29.95 "Hg10 mi
6:15 am64 °FFog.No wind99%29.95 "Hg5 mi
5:55 am64 °FSunny.No wind98%29.94 "Hg7 mi
5:35 am65 °FClear.No wind97%29.94 "Hg10 mi
4:55 am65 °FClear.No wind98%29.94 "Hg10 mi
4:35 am66 °FClear.No wind93%29.93 "Hg10 mi
4:15 am66 °FClear.No wind93%29.93 "Hg10 mi
3:55 am67 °FClear.No wind89%29.93 "Hg10 mi
3:35 am67 °FClear.No wind91%29.93 "Hg10 mi
3:15 am67 °FClear.No wind90%29.93 "Hg10 mi
2:55 am68 °FClear.No wind90%29.93 "Hg10 mi
2:35 am68 °FClear.No wind87%29.93 "Hg10 mi
2:15 am70 °FClear.3 mph83%29.93 "Hg10 mi
1:55 am70 °FClear.5 mph82%29.93 "Hg10 mi
1:35 am71 °FClear.5 mph79%29.93 "Hg10 mi
1:15 am72 °FClear.6 mph78%29.93 "Hg10 mi
12:55 am71 °FClear.6 mph80%29.93 "Hg10 mi
12:35 am71 °FClear.7 mph80%29.93 "Hg10 mi
12:15 am72 °FClear.6 mph77%29.92 "Hg10 mi
11:55 pm
Sat, Jun 22
73 °FClear.7 mph76%29.92 "Hg10 mi
11:35 pm73 °FClear.8 mph76%29.92 "Hg10 mi
11:15 pm73 °FClear.6 mph75%29.91 "Hg10 mi
10:55 pm74 °FClear.6 mph73%29.91 "Hg10 mi
10:35 pm74 °FClear.6 mph71%29.90 "Hg10 mi
10:15 pm76 °FClear.7 mph67%29.89 "Hg10 mi
9:55 pm77 °FClear.7 mph64%29.87 "Hg10 mi
9:35 pm78 °FClear.7 mph62%29.86 "Hg10 mi
9:15 pm79 °FClear.8 mph61%29.86 "Hg10 mi
8:55 pm80 °FSunny.12 mph61%29.86 "Hg10 mi
8:35 pm81 °FSunny.10 mph61%29.85 "Hg10 mi
8:15 pm82 °FSunny.14 mph58%29.85 "Hg10 mi
7:55 pm82 °FScattered clouds.13 mph60%29.84 "Hg10 mi
7:15 pm82 °FSunny.9 mph67%29.84 "Hg10 mi
6:55 pm80 °FSunny.8 mph69%29.84 "Hg10 mi
6:35 pm81 °FSunny.9 mph66%29.84 "Hg10 mi
6:15 pm82 °FSunny.13 mph62%29.84 "Hg10 mi
5:55 pm82 °FScattered clouds.15 mph66%29.84 "Hg10 mi
5:15 pm82 °FMore clouds than sun.17 mph69%29.83 "Hg10 mi
4:55 pm83 °FMostly cloudy.13 mph68%29.83 "Hg10 mi
4:35 pm84 °FMore clouds than sun.10 mph66%29.82 "Hg10 mi
4:15 pm85 °FPartly sunny.9 mph65%29.81 "Hg10 mi
3:35 pm85 °FBroken clouds.8 mph65%29.81 "Hg10 mi
2:55 pm86 °FScattered clouds.9 mph67%29.80 "Hg10 mi
2:15 pm85 °FCloudy.12 mph64%29.80 "Hg10 mi
1:55 pm86 °FCloudy.10 mph63%29.79 "Hg10 mi
1:15 pm86 °FBroken clouds.12 mph62%29.80 "Hg10 mi
12:55 pm87 °FCloudy.9 mph60%29.79 "Hg10 mi
12:35 pm86 °FMostly cloudy.8 mph61%29.80 "Hg10 mi
11:55 am86 °FPartly sunny.9 mph59%29.80 "Hg10 mi
11:35 am85 °FMostly cloudy.8 mph60%29.80 "Hg10 mi
11:15 am85 °FPartly sunny.12 mph60%29.79 "Hg10 mi
10:55 am85 °FScattered clouds.8 mph60%29.80 "Hg10 mi
10:35 am85 °FSunny.10 mph62%29.80 "Hg10 mi
10:15 am84 °FSunny.7 mph62%29.80 "Hg10 mi
Weather by CustomWeather, © 2024

See weather overview